Impacts TAF Board INFO
FOR SITUATIONAL AWARENESS. NOT TO BE USED FOR FLIGHT PLANNING PURPOSES.
IDs:

KEWR - Newark Intl, NJ, US

Issued at 1725 UTC 18 Feb 2018
Updated at 1810 UTC 18 Feb 2018
Potential Impact None Slight Moderate High
Time<<19/19Z 19/20Z 19/21Z 19/22Z 19/23Z 20/00Z 20/01Z 20/02Z 20/03Z 20/04Z 20/05Z 20/06Z 20/07Z
Type PRVL PRVL PRVL PRVL PRVL
VIS >6 >6 >6 >6 >6
CIG 250 50 50 50 50
Cover BKN BKN BKN BKN BKN
FltCat VFR VFR VFR VFR VFR
WX -- -- -- -- --
WDir 180 180 180 180 180
WSpd 6 8 8 8 8
WGst -- -- -- -- --

Raw TAF
KEWR 181725Z 1818/1924 29010KT P6SM SKC
  FM182100 26006KT P6SM SKC
  FM190200 VRB03KT P6SM SKC
  FM191200 18006KT P6SM BKN250
  FM192000 18008KT P6SM SCT025 BKN050 BKN120


METAR Board
Radar Display
Forecast Discussion

FOR SITUATIONAL AWARENESS. NOT TO BE USED FOR FLIGHT PLANNING PURPOSES.